Latest Weather Observations for Viewbank

IDV60901

Issued at 7:21 am EDT Monday 5 December 2016 (issued every 10 minutes, with the page automatically refreshed every 10 minutes)

About weather observations | Map of Melbourne area stations | Latest observations for Melbourne area | Other Formats
Station Details ID: 086068 Name: VIEWBANK Lat: -37.74 Lon: 145.10 Height: 66.1 m
Data from the previous 72 hours. | See also: Recent months at Viewbank
Date/Time
EDT
Temp
°C
App
Temp
°C
Dew
Point
°C
Rel
Hum
%
Delta-T
°C
Wind Press
QNH
hPa
Press
MSL
hPa
Rain since
9am
mm
Dir  Spd
km/h
Gust
km/h
Spd
kts
Gust
kts
05/07:00am 17.1 15.1 14.0 82 1.8 WSW 17 24 9 13 1009.3 1009.2 -
05/06:30am 18.1 16.4 15.7 86 1.4 SW 19 33 10 18 1008.7 1008.6 -
05/06:00am 20.9 19.4 15.2 70 3.4 W 17 33 9 18 1007.4 1007.2 -
05/05:30am 22.0 21.0 16.5 71 3.3 NNW 17 24 9 13 1006.4 - 5.2
05/05:00am 21.9 22.3 16.4 71 3.4 NW 9 17 5 9 1005.9 1005.7 5.2
05/04:30am 22.2 21.0 16.2 69 3.6 NNW 17 24 9 13 1005.1 1004.9 5.2
05/04:00am 22.3 21.1 16.1 68 3.8 N 17 24 9 13 1004.4 1004.2 5.2
05/03:30am 22.0 21.2 16.1 69 3.6 N 15 26 8 14 1004.2 1004.0 5.2
05/03:00am 22.3 21.3 15.6 66 4.0 N 15 26 8 14 1004.2 1004.0 5.2
05/02:30am 23.2 21.2 15.5 62 4.6 N 20 37 11 20 1004.1 1003.9 5.2
05/02:00am 23.4 20.7 15.5 61 4.8 N 24 41 13 22 1004.0 1003.8 5.2
05/01:30am 22.8 21.6 16.1 66 4.1 NNE 17 43 9 23 1003.9 1003.7 5.2
05/01:00am 20.7 22.0 17.5 82 2.0 NNE 7 15 4 8 1004.6 1004.4 5.2
05/12:30am 20.5 21.7 17.3 82 2.0 NE 7 11 4 6 1005.0 1004.8 5.2
05/12:00am 21.1 22.0 17.5 80 2.2 NNE 9 15 5 8 1005.3 1005.1 5.2
 
Date/Time
EDT
Temp
°C
App
Temp
°C
Dew
Point
°C
Rel
Hum
%
Delta-T
°C
Wind Press
QNH
hPa
Press
MSL
hPa
Rain since
9am
mm
Dir  Spd
km/h
Gust
km/h
Spd
kts
Gust
kts
04/11:30pm 20.3 21.9 18.2 88 1.3 ENE 7 13 4 7 1005.1 1004.9 5.2
04/11:00pm 20.1 21.8 18.6 91 0.9 ENE 7 13 4 7 1005.5 1005.3 5.2
04/10:30pm 19.5 21.3 19.5 100 0.0 NE 9 17 5 9 1005.8 1005.6 5.2
04/10:00pm 19.2 21.2 19.2 100 0.0 ENE 7 11 4 6 1006.2 1006.0 5.2
04/09:30pm 19.3 21.0 19.3 100 0.0 E 9 13 5 7 1006.4 1006.2 5.2
04/09:00pm 19.2 21.2 19.2 100 0.0 ENE 7 15 4 8 1006.9 1006.7 5.2
04/08:30pm 19.4 21.5 19.4 100 0.0 E 7 11 4 6 1007.4 1007.2 4.4
04/08:00pm 20.3 21.7 19.6 96 0.4 NE 11 17 6 9 1008.1 1007.9 1.2
04/07:30pm 21.7 22.8 18.1 80 2.2 NNE 9 15 5 8 1007.6 1007.4 0.2
04/07:00pm 22.9 23.2 17.1 70 3.6 NNW 11 15 6 8 1007.7 1007.5 0.2
04/06:30pm 24.6 22.7 15.2 55 5.7 NW 19 30 10 16 1007.7 1007.5 0.0
04/06:00pm 27.5 24.9 13.8 43 8.2 NW 20 33 11 18 1006.8 1006.6 0.0
04/05:30pm 28.8 25.7 12.2 35 9.7 N 20 39 11 21 1005.9 1005.7 0.0
04/05:00pm 29.7 28.9 11.2 31 10.7 ENE 6 43 3 23 1005.7 1005.5 0.0
04/04:30pm 30.1 29.9 13.0 35 10.2 ENE 6 9 3 5 1005.0 1004.8 0.0
04/04:00pm 30.4 29.4 12.3 33 10.7 ENE 9 15 5 8 1005.4 1005.2 0.0
04/03:30pm 31.0 29.6 10.9 29 11.6 NNE 9 22 5 12 1005.8 1005.6 0.0
04/03:00pm 30.5 28.5 11.5 31 11.1 NNE 13 24 7 13 1006.4 1006.2 0.0
04/02:30pm 30.3 27.1 9.8 28 11.6 N 17 28 9 15 1006.8 1006.6 0.0
04/02:00pm 30.6 27.6 10.5 29 11.5 N 17 30 9 16 1007.4 1007.2 0.0
04/01:30pm 31.4 26.7 10.7 28 11.9 N 26 39 14 21 1007.3 1007.1 0.0
04/01:06pm 30.4 25.1 9.8 28 11.7 N 28 46 15 25 1007.5 1007.3 0.0
04/01:00pm 30.5 26.1 10.5 29 11.5 N 24 44 13 24 1007.6 1007.4 0.0
04/12:30pm 29.9 25.9 8.9 27 11.7 N 20 39 11 21 1008.0 1007.8 0.0
04/12:00pm 29.1 25.7 9.3 29 11.1 NNE 17 30 9 16 1008.2 1008.0 0.0
04/11:30am 29.0 27.8 11.6 34 10.1 NE 9 17 5 9 1008.6 1008.5 0.0
04/11:00am 25.8 26.0 14.3 49 6.9 SE 6 13 3 7 1009.0 1008.9 0.0
04/10:30am 23.8 24.2 13.6 52 6.0 SSE 4 9 2 5 1009.2 1009.1 0.0
04/10:00am 21.7 21.6 12.0 54 5.5 SE 4 7 2 4 1009.7 1009.6 0.0
04/09:30am 19.1 18.3 11.7 62 4.1 ESE 7 13 4 7 1009.9 1009.8 0.0
04/09:00am 17.1 16.4 12.0 72 2.8 ESE 7 11 4 6 1010.2 1010.1 0.0
04/08:30am 15.6 16.4 12.7 83 1.6 CALM 0 7 0 4 1010.7 1010.6 0.0
04/08:00am 13.8 13.8 12.5 92 0.7 E 4 7 2 4 1010.6 1010.5 0.0
04/07:30am 12.0 11.2 11.8 99 0.1 E 7 9 4 5 1010.6 1010.5 0.0
04/07:00am 11.1 9.7 10.9 99 0.1 ENE 9 11 5 6 1010.8 1010.7 0.0
04/06:30am 10.4 9.7 10.2 99 0.1 NE 4 7 2 4 1010.7 1010.6 0.0
04/06:00am 10.6 10.8 10.4 99 0.1 CALM 0 7 0 4 1011.2 1011.1 0.0
04/05:30am 10.2 8.9 10.1 99 0.1 ENE 7 9 4 5 1011.0 1010.9 0.0
04/05:00am 10.7 9.6 10.5 99 0.1 NE 7 9 4 5 1011.2 1011.1 0.0
04/04:30am 11.2 11.2 11.0 99 0.1 NNE 2 6 1 3 1011.3 1011.2 0.0
04/04:00am 11.5 11.5 11.3 99 0.1 E 2 6 1 3 1011.2 1011.1 0.0
04/03:30am 12.1 12.6 11.5 96 0.3 CALM 0 2 0 1 1011.3 1011.2 0.0
04/03:00am 12.4 12.5 11.5 94 0.5 ENE 2 7 1 4 1011.5 1011.4 0.0
04/02:30am 12.9 13.5 11.8 93 0.6 CALM 0 0 0 0 1011.9 1011.8 0.0
04/02:00am 13.3 12.8 11.9 91 0.8 ENE 6 9 3 5 1012.3 1012.1 0.0
04/01:30am 13.6 14.2 12.0 90 0.9 CALM 0 6 0 3 1012.4 1012.2 0.0
04/01:00am 14.2 13.7 11.9 86 1.2 NE 6 7 3 4 1012.8 1012.6 0.0
04/12:30am 14.7 15.3 11.8 83 1.6 CALM 0 0 0 0 1013.1 1012.9 0.0
04/12:00am 15.5 16.0 11.7 78 2.1 CALM 0 0 0 0 1013.3 1013.1 0.0
 
Date/Time
EDT
Temp
°C
App
Temp
°C
Dew
Point
°C
Rel
Hum
%
Delta-T
°C
Wind Press
QNH
hPa
Press
MSL
hPa
Rain since
9am
mm
Dir  Spd
km/h
Gust
km/h
Spd
kts
Gust
kts
03/11:30pm 15.9 15.3 11.7 76 2.3 SW 6 9 3 5 1013.6 1013.4 0.0
03/11:00pm 16.0 15.4 11.8 76 2.3 WSW 6 7 3 4 1013.8 1013.6 0.0
03/10:30pm 16.8 16.2 11.7 72 2.8 SSW 6 7 3 4 1013.7 1013.5 0.0
03/10:00pm 17.2 17.7 11.7 70 3.0 CALM 0 0 0 0 1013.7 1013.5 0.0
03/09:30pm 17.9 17.2 11.5 66 3.5 SW 6 7 3 4 1013.6 1013.4 0.0
03/09:00pm 18.6 18.5 10.9 61 4.2 SSW 2 7 1 4 1013.4 1013.2 0.0
03/08:30pm 19.3 18.2 10.8 58 4.6 SSE 7 15 4 8 1013.3 1013.1 0.0
03/08:00pm 20.5 19.0 10.6 53 5.4 S 9 17 5 9 1013.3 1013.1 0.0
03/07:30pm 22.1 20.4 9.9 46 6.6 SSE 9 22 5 12 1013.0 1012.8 0.0
03/07:00pm 23.7 21.9 9.3 40 7.8 S 9 17 5 9 1012.9 1012.7 0.0
03/06:30pm 24.6 22.2 5.4 29 9.8 S 7 13 4 7 1012.8 1012.6 0.0
03/06:00pm 25.0 22.2 5.2 28 10.1 SSE 9 17 5 9 1012.6 1012.4 0.0
03/05:30pm 25.2 22.6 5.9 29 9.9 S 9 13 5 7 1012.7 1012.5 0.0
03/05:00pm 25.0 22.6 7.2 32 9.4 S 9 17 5 9 1013.1 1012.9 0.0
03/04:30pm 24.7 22.7 8.6 36 8.7 SW 9 20 5 11 1013.5 1013.3 0.0
03/04:00pm 24.9 22.5 10.0 39 8.2 WSW 13 20 7 11 1013.8 1013.6 0.0
03/03:30pm 24.0 21.5 9.6 40 7.9 SW 13 22 7 12 1013.9 1013.7 0.0
03/03:00pm 24.2 22.0 7.8 35 8.7 WSW 9 19 5 10 1014.2 1014.0 0.0
03/02:30pm 24.0 21.5 8.4 37 8.3 SW 11 20 6 11 1014.3 1014.1 0.0
03/02:00pm 22.5 19.5 7.9 39 7.7 SW 13 20 7 11 1014.6 1014.4 0.0
03/01:30pm 22.3 20.0 9.1 43 7.1 WSW 11 22 6 12 1014.7 1014.5 0.0
03/01:00pm 22.1 19.9 7.9 40 7.4 S 9 17 5 9 1015.1 1014.9 0.0
03/12:30pm 20.4 17.7 5.6 38 7.3 E 9 13 5 7 1015.6 1015.4 0.0
03/12:00pm 20.2 17.8 7.2 43 6.6 W 9 15 5 8 1015.9 1015.7 0.0
03/11:30am 19.7 17.7 6.4 42 6.7 SW 6 11 3 6 1016.0 1015.8 0.0
03/11:00am 18.3 15.9 5.2 42 6.3 SW 7 17 4 9 1016.0 1015.8 0.0
03/10:30am 18.4 16.2 6.3 45 6.0 SE 7 15 4 8 1016.2 1016.0 0.0
03/10:00am 17.7 15.5 6.3 47 5.6 S 7 13 4 7 1016.1 1015.9 0.0
03/09:30am 16.1 14.4 7.6 57 4.3 SW 6 11 3 6 1016.2 1016.0 0.0
03/09:00am 15.4 13.9 8.6 64 3.5 S 6 9 3 5 1016.3 1016.1 0.0
03/08:30am 13.9 12.8 8.5 70 2.7 SSE 4 7 2 4 1016.4 1016.2 0.0
03/08:00am 12.5 11.5 8.8 78 1.9 WNW 4 7 2 4 1016.3 1016.1 0.0
03/07:30am 10.4 10.2 9.0 91 0.7 CALM 0 0 0 0 1015.9 1015.7 0.0
03/07:00am 9.1 8.8 8.5 96 0.3 CALM 0 0 0 0 1015.8 1015.6 0.0
03/06:30am 8.2 7.7 7.9 98 0.1 CALM 0 0 0 0 1015.5 1015.3 0.0
03/06:00am 8.0 7.4 7.2 95 0.4 CALM 0 0 0 0 1015.2 1015.0 0.0
03/05:30am 8.3 7.7 7.2 93 0.5 CALM 0 0 0 0 1014.9 1014.7 0.0
03/05:00am 8.9 8.3 7.2 89 0.8 CALM 0 0 0 0 1014.8 1014.6 0.0
03/04:30am 9.0 8.2 6.6 85 1.1 CALM 0 0 0 0 1014.9 1014.7 0.0
03/04:00am 9.7 7.8 6.8 82 1.4 W 6 6 3 3 1015.1 1014.9 0.0
03/03:30am 10.0 8.4 6.5 79 1.6 W 4 6 2 3 1015.0 1014.8 0.0
03/03:00am 10.3 9.5 6.6 78 1.7 CALM 0 0 0 0 1015.2 1015.0 0.0
03/02:30am 10.4 8.8 6.4 76 1.9 W 4 7 2 4 1015.4 1015.2 0.0
03/02:00am 10.8 9.2 6.2 73 2.2 WSW 4 6 2 3 1015.8 1015.6 0.0
03/01:30am 11.1 9.0 5.8 70 2.5 WSW 6 9 3 5 1016.1 1015.9 0.0
03/01:00am 11.6 9.6 6.1 69 2.6 WSW 6 9 3 5 1016.3 1016.1 0.0
03/12:30am 11.7 10.4 6.0 68 2.7 WSW 2 7 1 4 1016.3 1016.1 0.0
03/12:00am 12.0 10.0 6.3 68 2.7 WSW 6 11 3 6 1016.5 1016.3 0.0
 
Date/Time
EDT
Temp
°C
App
Temp
°C
Dew
Point
°C
Rel
Hum
%
Delta-T
°C
Wind Press
QNH
hPa
Press
MSL
hPa
Rain since
9am
mm
Dir  Spd
km/h
Gust
km/h
Spd
kts
Gust
kts
02/11:30pm 12.3 10.3 6.4 67 2.8 WSW 6 11 3 6 1016.5 1016.3 0.0
02/11:00pm 12.5 10.0 6.5 67 2.9 WSW 9 15 5 8 1016.5 1016.3 0.0
02/10:30pm 13.0 10.5 6.6 65 3.1 WSW 9 17 5 9 1016.3 1016.1 0.0
02/10:00pm 13.4 10.9 6.5 63 3.3 WSW 9 19 5 10 1016.3 1016.1 0.0
02/09:30pm 14.0 11.6 6.8 62 3.5 WSW 9 48 5 26 1016.0 1015.8 0.0
02/09:00pm 14.7 12.5 8.0 64 3.4 SSW 9 24 5 13 1015.6 1015.4 0.0
02/08:30pm 15.4 13.4 8.6 64 3.5 SSW 9 20 5 11 1015.0 1014.8 0.0
02/08:00pm 16.2 12.8 9.2 63 3.6 SW 17 24 9 13 1014.4 1014.2 0.0
02/07:30pm 17.4 13.7 9.3 59 4.2 SW 19 26 10 14 1014.0 1013.8 0.0
02/07:00pm 18.3 15.0 9.4 56 4.7 SW 17 28 9 15 1013.6 1013.4 0.0
02/06:30pm 19.7 16.5 9.9 53 5.3 SW 17 28 9 15 1013.2 1013.0 0.0
02/06:00pm 20.6 18.4 10.7 53 5.4 SSW 13 20 7 11 1013.0 1012.8 0.0
02/05:30pm 21.1 18.6 11.2 53 5.5 SW 15 28 8 15 1012.8 1012.6 0.0
02/05:00pm 21.4 18.6 11.4 53 5.6 SW 17 30 9 16 1012.7 1012.5 0.0
02/04:30pm 21.7 19.2 12.3 55 5.3 SW 17 26 9 14 1012.7 1012.5 0.0
02/04:00pm 22.0 19.2 11.4 51 5.9 WSW 17 26 9 14 1012.4 1012.2 0.0
02/03:30pm 22.9 19.8 11.6 49 6.4 SW 19 28 10 15 1012.3 1012.1 0.0
02/03:00pm 22.8 20.9 11.8 50 6.2 WSW 13 20 7 11 1012.1 1012.0 0.0
02/02:30pm 21.4 19.1 10.6 50 5.9 SW 13 28 7 15 1012.4 1012.2 0.0
02/02:00pm 22.1 19.6 10.9 49 6.2 SW 15 28 8 15 1012.4 1012.2 0.0
02/01:30pm 21.8 19.5 11.8 53 5.6 SW 15 24 8 13 1012.5 1012.3 0.0
02/01:00pm 21.4 19.4 10.3 49 6.1 WSW 11 17 6 9 1012.4 1012.2 0.0
02/12:30pm 20.0 18.0 10.1 53 5.3 SSW 11 20 6 11 1012.3 1012.1 0.0
02/12:00pm 20.7 18.1 9.3 48 6.1 SW 13 22 7 12 1012.3 1012.1 0.0
02/11:30am 20.0 16.4 9.9 52 5.4 WSW 19 30 10 16 1012.4 1012.2 0.0
02/11:00am 19.8 18.1 10.0 53 5.3 SW 9 13 5 7 1012.0 1011.9 0.0
02/10:30am 18.9 17.8 10.7 59 4.4 W 7 15 4 8 1012.1 1012.0 0.0
02/10:00am 16.8 14.0 10.0 64 3.6 W 15 28 8 15 1011.8 1011.7 0.0
02/09:30am 16.7 14.6 9.6 63 3.7 W 11 19 6 10 1011.4 1011.3 0.0
02/09:00am 16.1 13.6 9.8 66 3.3 W 13 20 7 11 1011.2 1011.1 0.0
02/08:30am 15.9 14.3 11.7 76 2.3 WSW 11 17 6 9 1010.9 1010.8 0.0
02/08:00am 14.9 13.2 11.3 79 1.9 W 11 20 6 11 1010.9 1010.8 0.0
02/07:30am 14.5 13.5 12.4 87 1.1 W 9 17 5 9 1010.5 1010.4 0.0

Latest Capital City Observations: Canberra | Sydney | Melbourne | Brisbane | Adelaide | Perth | Hobart | Darwin

Other Formats:

Comma delimited format used in spreadsheet applications
http://www.bom.gov.au/fwo/IDV60901/IDV60901.95874.axf

JavaScript Object Notation format (JSON) in row-major order
http://www.bom.gov.au/fwo/IDV60901/IDV60901.95874.json